Briarcliff, Texas
Current Conditions -  °F | °C
As of 4:35 AM on Monday 22 Dec 2014 (Local Time) from KRYW Reporting Station
Overcast Overcast  
Wind Chill: 57°   Ceiling: 1000
Heat Index: 57°   Visibility: 10mi
Dew Point: 53°   Wind: 12mph
Humidity: 85%   Direction: 210°SSW
Pressure: 29.74"   Gusts: 20mph
Location:  30.3864°N, 98.0483°W
Report Text: KRYW 221035Z AUTO 21010G17KT 10SM OVC010 14/12 A2974 RMK AO2 T01400116
Loading
Personal Weather Stations






























Interactive Weather Map New forecast layout! Learn more

10-Day Weather Forecast

Advertisements
Track Severe Weather on mobile